sensor_id;sensor_type;location;lat;lon;timestamp;pressure;altitude;pressure_sealevel;temperature;humidity
71057;BME280;58380;48.312;9.246;2023-02-01T08:32:44;94123.59;;;0.74;100.00
71057;BME280;58380;48.312;9.246;2023-02-01T08:35:09;94113.19;;;0.74;100.00
71057;BME280;58380;48.312;9.246;2023-02-01T08:37:35;94117.03;;;0.78;100.00
71057;BME280;58380;48.312;9.246;2023-02-01T08:40:00;94066.97;;;0.48;100.00
71057;BME280;58380;48.312;9.246;2023-02-01T08:42:26;94117.72;;;0.86;100.00
71057;BME280;58380;48.312;9.246;2023-02-01T08:45:10;94124.00;;;0.99;98.06
71057;BME280;58380;48.312;9.246;2023-02-01T08:47:35;94084.91;;;0.85;96.93
71057;BME280;58380;48.312;9.246;2023-02-01T08:50:01;94138.94;;;1.12;97.28
71057;BME280;58380;48.312;9.246;2023-02-01T08:52:27;94138.38;;;1.16;97.91
71057;BME280;58380;48.312;9.246;2023-02-01T08:54:52;94144.19;;;1.18;96.38
71057;BME280;58380;48.312;9.246;2023-02-01T08:57:17;94152.22;;;1.23;96.07
71057;BME280;58380;48.312;9.246;2023-02-01T08:59:43;94170.50;;;1.30;91.97
71057;BME280;58380;48.312;9.246;2023-02-01T09:02:13;94159.88;;;1.25;92.34
71057;BME280;58380;48.312;9.246;2023-02-01T09:04:40;94165.53;;;1.35;91.69
71057;BME280;58380;48.312;9.246;2023-02-01T09:07:07;94144.81;;;1.20;91.69
71057;BME280;58380;48.312;9.246;2023-02-01T09:09:33;94111.81;;;0.99;91.49
71057;BME280;58380;48.312;9.246;2023-02-01T09:12:03;94147.34;;;1.35;91.63
71057;BME280;58380;48.312;9.246;2023-02-01T09:14:29;94150.75;;;1.36;91.02
71057;BME280;58380;48.312;9.246;2023-02-01T09:16:54;94154.31;;;1.35;91.39
71057;BME280;58380;48.312;9.246;2023-02-01T09:19:20;94141.31;;;1.35;90.61
71057;BME280;58380;48.312;9.246;2023-02-01T09:21:45;94141.28;;;1.28;90.40
71057;BME280;58380;48.312;9.246;2023-02-01T09:24:11;94148.94;;;1.36;89.85
71057;BME280;58380;48.312;9.246;2023-02-01T09:26:37;94149.97;;;1.42;90.31
71057;BME280;58380;48.312;9.246;2023-02-01T09:29:03;94164.63;;;1.49;89.28
71057;BME280;58380;48.312;9.246;2023-02-01T09:31:31;94171.25;;;1.52;89.46
71057;BME280;58380;48.312;9.246;2023-02-01T09:33:57;94154.28;;;1.28;89.37
71057;BME280;58380;48.312;9.246;2023-02-01T09:36:22;94155.94;;;1.36;89.38
71057;BME280;58380;48.312;9.246;2023-02-01T09:38:49;94157.28;;;1.32;89.44
71057;BME280;58380;48.312;9.246;2023-02-01T09:46:57;94186.03;;;1.45;88.21
71057;BME280;58380;48.312;9.246;2023-02-01T09:49:29;94184.22;;;1.45;89.15
71057;BME280;58380;48.312;9.246;2023-02-01T09:51:56;94105.19;;;0.97;88.39
71057;BME280;58380;48.312;9.246;2023-02-01T09:55:02;94174.81;;;1.44;88.53
71057;BME280;58380;48.312;9.246;2023-02-01T09:57:40;94174.47;;;1.54;86.42
71057;BME280;58380;48.312;9.246;2023-02-01T10:00:25;94149.34;;;1.40;87.39
71057;BME280;58380;48.312;9.246;2023-02-01T10:02:55;94161.00;;;1.44;87.13
71057;BME280;58380;48.312;9.246;2023-02-01T10:05:44;94150.34;;;1.39;85.29
71057;BME280;58380;48.312;9.246;2023-02-01T10:09:16;94145.31;;;1.37;85.43
71057;BME280;58380;48.312;9.246;2023-02-01T10:11:59;94179.09;;;1.80;85.28
71057;BME280;58380;48.312;9.246;2023-02-01T10:20:35;94185.75;;;1.89;81.28
71057;BME280;58380;48.312;9.246;2023-02-01T10:26:33;94176.97;;;1.97;81.40
71057;BME280;58380;48.312;9.246;2023-02-01T10:29:04;94166.84;;;2.09;81.07
71057;BME280;58380;48.312;9.246;2023-02-01T10:31:41;94151.00;;;2.04;78.81
71057;BME280;58380;48.312;9.246;2023-02-01T10:34:35;94152.44;;;2.13;79.19
71057;BME280;58380;48.312;9.246;2023-02-01T10:37:07;94178.78;;;2.31;79.12
71057;BME280;58380;48.312;9.246;2023-02-01T10:39:46;94176.75;;;2.27;77.76
71057;BME280;58380;48.312;9.246;2023-02-01T10:42:14;94190.72;;;2.19;78.59
71057;BME280;58380;48.312;9.246;2023-02-01T10:44:44;94192.75;;;2.24;78.91
71057;BME280;58380;48.312;9.246;2023-02-01T10:47:13;94170.47;;;2.14;78.69
71057;BME280;58380;48.312;9.246;2023-02-01T10:49:52;94174.66;;;2.09;78.20
71057;BME280;58380;48.312;9.246;2023-02-01T10:53:04;94185.69;;;2.11;77.82
71057;BME280;58380;48.312;9.246;2023-02-01T10:55:39;94198.31;;;2.14;79.97
71057;BME280;58380;48.312;9.246;2023-02-01T10:58:31;94207.94;;;2.13;79.15
71057;BME280;58380;48.312;9.246;2023-02-01T11:01:00;94184.66;;;2.05;80.11
71057;BME280;58380;48.312;9.246;2023-02-01T11:04:03;94209.84;;;1.98;80.04
71057;BME280;58380;48.312;9.246;2023-02-01T11:06:36;94192.97;;;1.94;80.90
71057;BME280;58380;48.312;9.246;2023-02-01T11:19:25;94178.03;;;1.46;88.86
71057;BME280;58380;48.312;9.246;2023-02-01T11:21:51;94198.41;;;1.43;89.10
71057;BME280;58380;48.312;9.246;2023-02-01T11:24:31;94175.00;;;1.21;90.82
71057;BME280;58380;48.312;9.246;2023-02-01T11:27:02;94170.91;;;1.12;92.51
71057;BME280;58380;48.312;9.246;2023-02-01T11:29:36;94169.50;;;1.10;93.48
71057;BME280;58380;48.312;9.246;2023-02-01T11:32:05;94154.78;;;0.95;94.18
71057;BME280;58380;48.312;9.246;2023-02-01T11:34:41;94182.44;;;1.24;94.38
71057;BME280;58380;48.312;9.246;2023-02-01T11:37:20;94159.28;;;1.29;95.41
71057;BME280;58380;48.312;9.246;2023-02-01T11:39:59;94164.38;;;1.38;93.68
71057;BME280;58380;48.312;9.246;2023-02-01T11:42:28;94187.56;;;1.61;93.67
71057;BME280;58380;48.312;9.246;2023-02-01T11:45:19;94178.63;;;1.70;91.21
71057;BME280;58380;48.312;9.246;2023-02-01T11:47:57;94134.84;;;1.52;90.69
71057;BME280;58380;48.312;9.246;2023-02-01T11:50:44;94161.06;;;1.79;89.91
71057;BME280;58380;48.312;9.246;2023-02-01T11:58:55;94149.13;;;1.91;87.48
71057;BME280;58380;48.312;9.246;2023-02-01T12:07:27;94109.78;;;1.72;83.89
71057;BME280;58380;48.312;9.246;2023-02-01T12:11:18;94109.38;;;1.76;83.30
71057;BME280;58380;48.312;9.246;2023-02-01T12:19:32;94070.13;;;1.70;80.98
71057;BME280;58380;48.312;9.246;2023-02-01T12:28:20;94070.97;;;1.84;80.82
71057;BME280;58380;48.312;9.246;2023-02-01T12:31:17;94094.41;;;1.84;81.45
71057;BME280;58380;48.312;9.246;2023-02-01T12:34:17;94059.09;;;1.68;81.71
71057;BME280;58380;48.312;9.246;2023-02-01T12:37:16;94077.59;;;1.87;81.07
71057;BME280;58380;48.312;9.246;2023-02-01T12:40:18;94082.44;;;1.90;80.92
71057;BME280;58380;48.312;9.246;2023-02-01T12:43:12;94056.75;;;1.80;79.11
71057;BME280;58380;48.312;9.246;2023-02-01T12:45:56;94072.16;;;1.82;79.16
71057;BME280;58380;48.312;9.246;2023-02-01T12:51:31;94101.22;;;1.85;78.02
71057;BME280;58380;48.312;9.246;2023-02-01T12:54:15;94097.00;;;1.84;79.82
71057;BME280;58380;48.312;9.246;2023-02-01T13:04:59;94066.31;;;1.73;76.85
71057;BME280;58380;48.312;9.246;2023-02-01T13:10:22;94077.41;;;1.88;76.97
71057;BME280;58380;48.312;9.246;2023-02-01T13:12:58;94072.44;;;1.93;76.46
71057;BME280;58380;48.312;9.246;2023-02-01T13:15:46;94077.47;;;1.95;76.17
71057;BME280;58380;48.312;9.246;2023-02-01T13:18:20;94059.19;;;1.88;76.32
71057;BME280;58380;48.312;9.246;2023-02-01T13:20:58;94069.78;;;1.87;76.17
71057;BME280;58380;48.312;9.246;2023-02-01T13:23:35;94067.84;;;1.96;76.27
71057;BME280;58380;48.312;9.246;2023-02-01T13:26:03;94070.84;;;1.92;77.36
71057;BME280;58380;48.312;9.246;2023-02-01T13:28:36;94063.22;;;1.91;76.75
71057;BME280;58380;48.312;9.246;2023-02-01T13:43:11;94077.81;;;1.85;76.64
71057;BME280;58380;48.312;9.246;2023-02-01T13:45:53;94080.97;;;1.81;77.19
71057;BME280;58380;48.312;9.246;2023-02-01T13:48:27;94064.53;;;1.73;77.32
71057;BME280;58380;48.312;9.246;2023-02-01T13:50:58;94079.78;;;1.83;76.96
71057;BME280;58380;48.312;9.246;2023-02-01T13:53:32;94064.91;;;1.70;76.76
71057;BME280;58380;48.312;9.246;2023-02-01T13:56:13;94070.13;;;1.77;77.80
71057;BME280;58380;48.312;9.246;2023-02-01T13:58:44;94055.91;;;1.73;77.27
71057;BME280;58380;48.312;9.246;2023-02-01T14:03:59;94053.88;;;1.68;78.04
71057;BME280;58380;48.312;9.246;2023-02-01T14:11:38;94059.09;;;1.68;78.29
71057;BME280;58380;48.312;9.246;2023-02-01T14:19:21;94066.50;;;1.71;78.99
71057;BME280;58380;48.312;9.246;2023-02-01T14:21:51;94070.75;;;1.72;79.02
71057;BME280;58380;48.312;9.246;2023-02-01T14:24:34;94035.00;;;1.53;78.55
71057;BME280;58380;48.312;9.246;2023-02-01T14:27:14;94057.09;;;1.70;78.47
71057;BME280;58380;48.312;9.246;2023-02-01T14:29:51;94057.63;;;1.59;78.94
71057;BME280;58380;48.312;9.246;2023-02-01T14:32:35;94030.78;;;1.52;78.66
71057;BME280;58380;48.312;9.246;2023-02-01T14:35:06;94051.25;;;1.62;79.41
71057;BME280;58380;48.312;9.246;2023-02-01T14:37:43;94046.03;;;1.62;79.10
71057;BME280;58380;48.312;9.246;2023-02-01T14:47:55;94054.69;;;1.69;79.48
71057;BME280;58380;48.312;9.246;2023-02-01T14:50:44;94058.91;;;1.70;78.99
71057;BME280;58380;48.312;9.246;2023-02-01T14:53:27;94063.28;;;1.69;78.90
71057;BME280;58380;48.312;9.246;2023-02-01T14:56:06;94070.34;;;1.76;78.75
71057;BME280;58380;48.312;9.246;2023-02-01T14:58:57;94071.16;;;1.76;78.49
71057;BME280;58380;48.312;9.246;2023-02-01T15:01:35;94073.75;;;1.76;78.24
71057;BME280;58380;48.312;9.246;2023-02-01T15:04:04;94087.38;;;1.78;78.41
71057;BME280;58380;48.312;9.246;2023-02-01T15:09:16;94078.78;;;1.78;78.64
71057;BME280;58380;48.312;9.246;2023-02-01T15:14:36;94055.59;;;1.48;79.41
71057;BME280;58380;48.312;9.246;2023-02-01T15:17:18;94098.97;;;1.76;78.79
71057;BME280;58380;48.312;9.246;2023-02-01T15:19:57;94098.59;;;1.79;79.14
71057;BME280;58380;48.312;9.246;2023-02-01T15:22:24;94093.94;;;1.74;80.28
71057;BME280;58380;48.312;9.246;2023-02-01T15:24:53;94077.31;;;1.68;79.60
71057;BME280;58380;48.312;9.246;2023-02-01T15:27:20;94090.56;;;1.73;79.17
71057;BME280;58380;48.312;9.246;2023-02-01T15:29:46;94081.56;;;1.76;78.96
71057;BME280;58380;48.312;9.246;2023-02-01T15:32:32;94065.81;;;1.56;79.33
71057;BME280;58380;48.312;9.246;2023-02-01T15:35:00;94071.25;;;1.61;79.97
71057;BME280;58380;48.312;9.246;2023-02-01T15:37:27;94101.38;;;1.77;79.46
71057;BME280;58380;48.312;9.246;2023-02-01T15:40:22;94081.50;;;1.69;78.56
71057;BME280;58380;48.312;9.246;2023-02-01T15:42:57;94100.97;;;1.73;79.05
71057;BME280;58380;48.312;9.246;2023-02-01T15:45:29;94084.94;;;1.70;79.18
71057;BME280;58380;48.312;9.246;2023-02-01T15:47:59;94085.50;;;1.65;79.43
71057;BME280;58380;48.312;9.246;2023-02-01T15:50:26;94063.56;;;1.46;79.55
71057;BME280;58380;48.312;9.246;2023-02-01T15:52:54;94078.88;;;1.63;79.76
71057;BME280;58380;48.312;9.246;2023-02-01T15:55:40;94083.47;;;1.61;80.00
71057;BME280;58380;48.312;9.246;2023-02-01T15:58:09;94081.44;;;1.56;79.62
71057;BME280;58380;48.312;9.246;2023-02-01T16:00:48;94107.13;;;1.66;80.41
71057;BME280;58380;48.312;9.246;2023-02-01T16:03:41;94110.91;;;1.63;80.65
71057;BME280;58380;48.312;9.246;2023-02-01T16:06:11;94115.78;;;1.73;79.58
71057;BME280;58380;48.312;9.246;2023-02-01T16:11:39;94113.56;;;1.70;79.86
71057;BME280;58380;48.312;9.246;2023-02-01T16:14:11;94076.56;;;1.46;80.01
71057;BME280;58380;48.312;9.246;2023-02-01T16:16:36;94113.34;;;1.65;80.21
71057;BME280;58380;48.312;9.246;2023-02-01T16:19:01;94104.84;;;1.56;80.39
71057;BME280;58380;48.312;9.246;2023-02-01T16:21:27;94113.06;;;1.53;80.87
71057;BME280;58380;48.312;9.246;2023-02-01T16:23:52;94120.63;;;1.48;81.71
71057;BME280;58380;48.312;9.246;2023-02-01T16:26:19;94131.06;;;1.55;81.54
71057;BME280;58380;48.312;9.246;2023-02-01T16:28:45;94143.88;;;1.56;81.76
71057;BME280;58380;48.312;9.246;2023-02-01T16:31:15;94137.88;;;1.56;81.81
71057;BME280;58380;48.312;9.246;2023-02-01T16:33:49;94113.31;;;1.37;81.98
71057;BME280;58380;48.312;9.246;2023-02-01T16:36:16;94129.63;;;1.52;81.57
71057;BME280;58380;48.312;9.246;2023-02-01T16:38:43;94104.31;;;1.33;82.26
71057;BME280;58380;48.312;9.246;2023-02-01T16:41:13;94112.59;;;1.49;83.20
71057;BME280;58380;48.312;9.246;2023-02-01T16:43:40;94109.22;;;1.49;82.42
71057;BME280;58380;48.312;9.246;2023-02-01T16:46:05;94113.94;;;1.39;81.81
71057;BME280;58380;48.312;9.246;2023-02-01T16:48:40;94105.13;;;1.40;81.90
71057;BME280;58380;48.312;9.246;2023-02-01T16:51:12;94105.53;;;1.37;82.30
71057;BME280;58380;48.312;9.246;2023-02-01T16:53:41;94102.03;;;1.23;82.03
71057;BME280;58380;48.312;9.246;2023-02-01T16:56:32;94137.03;;;1.48;82.62
71057;BME280;58380;48.312;9.246;2023-02-01T16:58:59;94127.94;;;1.38;82.07
71057;BME280;58380;48.312;9.246;2023-02-01T17:01:25;94133.56;;;1.41;82.16
71057;BME280;58380;48.312;9.246;2023-02-01T17:03:51;94101.09;;;1.31;82.06
71057;BME280;58380;48.312;9.246;2023-02-01T17:06:19;94134.81;;;1.45;82.48
71057;BME280;58380;48.312;9.246;2023-02-01T17:08:52;94149.66;;;1.51;82.47
71057;BME280;58380;48.312;9.246;2023-02-01T17:11:20;94108.19;;;1.22;82.62
71057;BME280;58380;48.312;9.246;2023-02-01T17:13:45;94112.53;;;1.36;82.89
71057;BME280;58380;48.312;9.246;2023-02-01T17:18:43;94123.09;;;1.35;83.24
71057;BME280;58380;48.312;9.246;2023-02-01T17:21:11;94139.56;;;1.42;82.88
71057;BME280;58380;48.312;9.246;2023-02-01T17:23:37;94094.63;;;1.26;83.32
71057;BME280;58380;48.312;9.246;2023-02-01T17:26:03;94146.75;;;1.40;83.33
71057;BME280;58380;48.312;9.246;2023-02-01T17:28:29;94133.38;;;1.43;82.74
71057;BME280;58380;48.312;9.246;2023-02-01T17:30:55;94122.50;;;1.33;82.35
71057;BME280;58380;48.312;9.246;2023-02-01T17:33:35;94142.78;;;1.44;82.63
71057;BME280;58380;48.312;9.246;2023-02-01T17:36:02;94142.94;;;1.36;83.17
71057;BME280;58380;48.312;9.246;2023-02-01T17:38:30;94165.22;;;1.45;82.57
71057;BME280;58380;48.312;9.246;2023-02-01T17:40:55;94174.25;;;1.49;82.23
71057;BME280;58380;48.312;9.246;2023-02-01T17:43:22;94173.28;;;1.50;82.37
71057;BME280;58380;48.312;9.246;2023-02-01T17:45:52;94070.75;;;0.88;82.36
71057;BME280;58380;48.312;9.246;2023-02-01T17:48:22;94169.03;;;1.49;81.99
71057;BME280;58380;48.312;9.246;2023-02-01T17:50:49;94170.03;;;1.48;82.29
71057;BME280;58380;48.312;9.246;2023-02-01T17:53:25;94149.94;;;1.35;82.20
71057;BME280;58380;48.312;9.246;2023-02-01T17:55:52;94172.03;;;1.46;82.37
71057;BME280;58380;48.312;9.246;2023-02-01T17:58:18;94182.28;;;1.54;81.77
71057;BME280;58380;48.312;9.246;2023-02-01T18:00:46;94184.88;;;1.54;81.68
71057;BME280;58380;48.312;9.246;2023-02-01T18:03:24;94173.31;;;1.57;81.88
71057;BME280;58380;48.312;9.246;2023-02-01T18:05:53;94164.69;;;1.56;82.35
71057;BME280;58380;48.312;9.246;2023-02-01T18:08:22;94181.66;;;1.52;82.47
71057;BME280;58380;48.312;9.246;2023-02-01T18:10:57;94144.75;;;1.35;82.18
71057;BME280;58380;48.312;9.246;2023-02-01T18:13:25;94140.88;;;1.31;82.17
71057;BME280;58380;48.312;9.246;2023-02-01T18:15:51;94120.41;;;1.21;82.08
71057;BME280;58380;48.312;9.246;2023-02-01T18:18:17;94166.25;;;1.50;81.95
71057;BME280;58380;48.312;9.246;2023-02-01T18:20:44;94159.06;;;1.53;81.70
71057;BME280;58380;48.312;9.246;2023-02-01T18:23:13;94151.28;;;1.53;81.55
71057;BME280;58380;48.312;9.246;2023-02-01T18:25:42;94158.88;;;1.54;81.66
71057;BME280;58380;48.312;9.246;2023-02-01T18:28:07;94145.88;;;1.54;80.84
71057;BME280;58380;48.312;9.246;2023-02-01T18:30:33;94171.38;;;1.65;80.70
71057;BME280;58380;48.312;9.246;2023-02-01T18:33:00;94150.69;;;1.57;80.33
71057;BME280;58380;48.312;9.246;2023-02-01T18:35:30;94179.19;;;1.65;80.73
71057;BME280;58380;48.312;9.246;2023-02-01T18:37:56;94183.38;;;1.66;80.91
71057;BME280;58380;48.312;9.246;2023-02-01T18:40:25;94178.13;;;1.60;80.78
71057;BME280;58380;48.312;9.246;2023-02-01T18:42:54;94164.69;;;1.56;80.79
71057;BME280;58380;48.312;9.246;2023-02-01T18:45:39;94162.88;;;1.50;81.00
71057;BME280;58380;48.312;9.246;2023-02-01T18:48:08;94180.94;;;1.58;80.91
71057;BME280;58380;48.312;9.246;2023-02-01T18:50:40;94175.09;;;1.56;80.96
71057;BME280;58380;48.312;9.246;2023-02-01T18:53:15;94164.84;;;1.48;81.41
71057;BME280;58380;48.312;9.246;2023-02-01T18:55:46;94190.72;;;1.56;82.16
71057;BME280;58380;48.312;9.246;2023-02-01T18:58:13;94192.69;;;1.54;82.63
71057;BME280;58380;48.312;9.246;2023-02-01T19:00:41;94188.28;;;1.55;82.51
71057;BME280;58380;48.312;9.246;2023-02-01T19:03:10;94162.47;;;1.25;83.06
71057;BME280;58380;48.312;9.246;2023-02-01T19:05:37;94200.25;;;1.49;83.59
71057;BME280;58380;48.312;9.246;2023-02-01T19:08:02;94199.41;;;1.42;84.71
71057;BME280;58380;48.312;9.246;2023-02-01T19:10:28;94209.94;;;1.34;86.45
71057;BME280;58380;48.312;9.246;2023-02-01T19:12:54;94194.56;;;1.17;87.55
71057;BME280;58380;48.312;9.246;2023-02-01T19:15:20;94211.97;;;1.17;88.71
71057;BME280;58380;48.312;9.246;2023-02-01T19:17:47;94194.66;;;1.02;89.98
71057;BME280;58380;48.312;9.246;2023-02-01T19:20:17;94220.66;;;1.02;91.70
71057;BME280;58380;48.312;9.246;2023-02-01T19:22:45;94204.47;;;0.85;93.12
71057;BME280;58380;48.312;9.246;2023-02-01T19:25:16;94197.66;;;0.84;93.71
71057;BME280;58380;48.312;9.246;2023-02-01T19:27:43;94195.91;;;0.70;93.38
71057;BME280;58380;48.312;9.246;2023-02-01T19:30:10;94200.88;;;0.86;92.73
71057;BME280;58380;48.312;9.246;2023-02-01T19:32:37;94165.69;;;0.69;92.71
71057;BME280;58380;48.312;9.246;2023-02-01T19:35:04;94201.50;;;0.89;92.34
71057;BME280;58380;48.312;9.246;2023-02-01T19:37:30;94173.91;;;0.88;90.58
71057;BME280;58380;48.312;9.246;2023-02-01T19:39:56;94180.16;;;0.93;90.49
71057;BME280;58380;48.312;9.246;2023-02-01T19:42:24;94179.69;;;0.90;89.95
71057;BME280;58380;48.312;9.246;2023-02-01T19:44:50;94155.59;;;0.96;88.76
71057;BME280;58380;48.312;9.246;2023-02-01T19:47:16;94168.66;;;1.02;89.07
71057;BME280;58380;48.312;9.246;2023-02-01T19:49:41;94166.16;;;0.94;89.14
71057;BME280;58380;48.312;9.246;2023-02-01T19:52:07;94131.63;;;0.79;88.74
71057;BME280;58380;48.312;9.246;2023-02-01T19:54:32;94174.44;;;1.04;88.40
71057;BME280;58380;48.312;9.246;2023-02-01T19:56:57;94187.09;;;1.07;88.63
71057;BME280;58380;48.312;9.246;2023-02-01T19:59:23;94160.53;;;0.91;88.46
71057;BME280;58380;48.312;9.246;2023-02-01T20:01:48;94169.50;;;1.10;87.93
71057;BME280;58380;48.312;9.246;2023-02-01T20:04:16;94171.84;;;1.04;87.84
71057;BME280;58380;48.312;9.246;2023-02-01T20:06:43;94178.63;;;1.20;87.69
71057;BME280;58380;48.312;9.246;2023-02-01T20:09:21;94191.50;;;1.28;86.36
71057;BME280;58380;48.312;9.246;2023-02-01T20:11:48;94204.34;;;1.37;86.24
71057;BME280;58380;48.312;9.246;2023-02-01T20:14:15;94199.16;;;1.37;86.37
71057;BME280;58380;48.312;9.246;2023-02-01T20:16:42;94174.16;;;1.14;86.80
71057;BME280;58380;48.312;9.246;2023-02-01T20:19:09;94198.34;;;1.36;85.18
71057;BME280;58380;48.312;9.246;2023-02-01T20:21:36;94187.31;;;1.34;85.43
71057;BME280;58380;48.312;9.246;2023-02-01T20:24:04;94190.16;;;1.39;85.12
71057;BME280;58380;48.312;9.246;2023-02-01T20:26:30;94134.03;;;1.02;84.80
71057;BME280;58380;48.312;9.246;2023-02-01T20:28:57;94200.03;;;1.44;85.37
71057;BME280;58380;48.312;9.246;2023-02-01T20:31:24;94171.72;;;1.34;85.46
71057;BME280;58380;48.312;9.246;2023-02-01T20:33:50;94174.88;;;1.29;85.58
71057;BME280;58380;48.312;9.246;2023-02-01T20:36:16;94183.38;;;1.38;86.29
71057;BME280;58380;48.312;9.246;2023-02-01T20:38:42;94173.41;;;1.20;86.73
71057;BME280;58380;48.312;9.246;2023-02-01T20:41:08;94179.50;;;1.27;87.16
71057;BME280;58380;48.312;9.246;2023-02-01T20:43:34;94190.94;;;1.33;88.27
71057;BME280;58380;48.312;9.246;2023-02-01T20:46:00;94203.47;;;1.29;88.51
71057;BME280;58380;48.312;9.246;2023-02-01T20:48:26;94160.84;;;1.02;88.73
71057;BME280;58380;48.312;9.246;2023-02-01T20:50:54;94176.31;;;1.11;88.78
71057;BME280;58380;48.312;9.246;2023-02-01T20:53:22;94174.53;;;1.11;89.40
71057;BME280;58380;48.312;9.246;2023-02-01T20:55:52;94181.00;;;1.22;89.73
71057;BME280;58380;48.312;9.246;2023-02-01T20:58:19;94157.50;;;1.08;89.38
71057;BME280;58380;48.312;9.246;2023-02-01T21:00:45;94146.84;;;1.03;89.80
71057;BME280;58380;48.312;9.246;2023-02-01T21:03:12;94168.94;;;1.14;90.42
71057;BME280;58380;48.312;9.246;2023-02-01T21:05:38;94151.44;;;1.01;90.08
71057;BME280;58380;48.312;9.246;2023-02-01T21:08:08;94162.53;;;1.10;89.87
71057;BME280;58380;48.312;9.246;2023-02-01T21:10:36;94172.94;;;1.10;89.88
71057;BME280;58380;48.312;9.246;2023-02-01T21:13:03;94167.72;;;1.10;89.78
71057;BME280;58380;48.312;9.246;2023-02-01T21:15:29;94194.25;;;1.27;88.03
71057;BME280;58380;48.312;9.246;2023-02-01T21:17:58;94149.00;;;1.00;88.15
71057;BME280;58380;48.312;9.246;2023-02-01T21:20:25;94183.50;;;1.30;87.40
71057;BME280;58380;48.312;9.246;2023-02-01T21:22:52;94161.59;;;1.18;87.13
71057;BME280;58380;48.312;9.246;2023-02-01T21:25:17;94195.09;;;1.27;86.61
71057;BME280;58380;48.312;9.246;2023-02-01T21:27:43;94173.03;;;1.23;86.29
71057;BME280;58380;48.312;9.246;2023-02-01T21:30:09;94172.91;;;1.32;85.79
71057;BME280;58380;48.312;9.246;2023-02-01T21:32:34;94198.03;;;1.46;85.84
71057;BME280;58380;48.312;9.246;2023-02-01T21:35:00;94206.88;;;1.51;85.18
71057;BME280;58380;48.312;9.246;2023-02-01T21:37:25;94174.88;;;1.29;85.45
71057;BME280;58380;48.312;9.246;2023-02-01T21:39:51;94194.63;;;1.45;85.04
71057;BME280;58380;48.312;9.246;2023-02-01T21:42:17;94182.91;;;1.56;83.96
71057;BME280;58380;48.312;9.246;2023-02-01T21:44:45;94198.34;;;1.58;84.20
71057;BME280;58380;48.312;9.246;2023-02-01T21:47:11;94172.03;;;1.46;83.72
71057;BME280;58380;48.312;9.246;2023-02-01T21:49:38;94204.59;;;1.63;84.02
71057;BME280;58380;48.312;9.246;2023-02-01T21:52:04;94198.94;;;1.60;84.04
71057;BME280;58380;48.312;9.246;2023-02-01T21:54:29;94187.09;;;1.57;83.67
71057;BME280;58380;48.312;9.246;2023-02-01T21:56:55;94190.16;;;1.61;83.87
71057;BME280;58380;48.312;9.246;2023-02-01T21:59:20;94148.00;;;1.44;84.28
71057;BME280;58380;48.312;9.246;2023-02-01T22:01:45;94178.31;;;1.58;84.27
71057;BME280;58380;48.312;9.246;2023-02-01T22:04:11;94142.56;;;1.39;83.82
71057;BME280;58380;48.312;9.246;2023-02-01T22:06:38;94181.09;;;1.57;84.08
71057;BME280;58380;48.312;9.246;2023-02-01T22:09:14;94164.03;;;1.47;83.71
71057;BME280;58380;48.312;9.246;2023-02-01T22:11:43;94169.03;;;1.49;83.97
71057;BME280;58380;48.312;9.246;2023-02-01T22:14:10;94171.63;;;1.49;83.94
71057;BME280;58380;48.312;9.246;2023-02-01T22:16:36;94173.91;;;1.59;83.54
71057;BME280;58380;48.312;9.246;2023-02-01T22:19:01;94185.34;;;1.58;83.88
71057;BME280;58380;48.312;9.246;2023-02-01T22:21:27;94165.81;;;1.47;84.02
71057;BME280;58380;48.312;9.246;2023-02-01T22:23:54;94173.91;;;1.59;83.96
71057;BME280;58380;48.312;9.246;2023-02-01T22:26:21;94166.66;;;1.47;84.16
71057;BME280;58380;48.312;9.246;2023-02-01T22:28:48;94176.03;;;1.48;84.79
